Time;durP1;ratioP1;P1;durP2;ratioP2;P2;SDS_P1;SDS_P2;PMS_P1;PMS_P2;Temp;Humidity;BMP_temperature;BMP_pressure;BME280_temperature;BME280_humidity;BME280_pressure;Samples;Min_cycle;Max_cycle;Signal;HPM_P1;HPM_P2
2021/09/02 00:00:47;;;;;;;18.83;12.05;;;11.40;99.90;;;;;;5054461;28;20506;-71
2021/09/02 00:03:13;;;;;;;20.17;12.50;;;11.30;99.90;;;;;;5054761;28;20025;-70
2021/09/02 00:05:38;;;;;;;19.55;12.20;;;11.30;99.90;;;;;;5053629;28;20025;-71
2021/09/02 00:08:04;;;;;;;21.88;13.68;;;11.30;99.90;;;;;;5054556;28;20091;-71
2021/09/02 00:10:30;;;;;;;22.90;12.88;;;11.20;99.90;;;;;;5055316;28;20047;-71
2021/09/02 00:12:56;;;;;;;19.67;14.32;;;11.20;99.90;;;;;;5055252;28;20024;-71
2021/09/02 00:15:21;;;;;;;21.35;13.50;;;11.10;99.90;;;;;;5053277;28;20082;-71
2021/09/02 00:17:47;;;;;;;20.98;13.88;;;11.10;99.90;;;;;;5053383;28;20025;-71
2021/09/02 00:20:13;;;;;;;17.25;12.82;;;11.10;99.90;;;;;;5056175;28;20029;-72
2021/09/02 00:22:39;;;;;;;15.13;12.27;;;11.10;99.90;;;;;;5057172;28;20502;-72
2021/09/02 00:25:05;;;;;;;18.85;12.75;;;11.10;99.90;;;;;;5053393;28;20036;-72
2021/09/02 00:27:30;;;;;;;17.13;11.80;;;11.00;99.90;;;;;;5054313;28;20025;-73
2021/09/02 00:29:56;;;;;;;17.23;11.68;;;11.00;99.90;;;;;;5053731;28;20498;-73
2021/09/02 00:32:22;;;;;;;19.65;11.70;;;11.00;99.90;;;;;;5054206;28;20108;-72
2021/09/02 00:34:47;;;;;;;16.40;12.52;;;11.00;99.90;;;;;;5051794;28;20021;-72
2021/09/02 00:37:13;;;;;;;19.33;11.63;;;11.00;99.90;;;;;;5054322;28;20025;-72
2021/09/02 00:39:39;;;;;;;18.23;11.98;;;11.00;99.90;;;;;;5053853;28;20456;-72
2021/09/02 00:42:05;;;;;;;23.65;11.35;;;10.90;99.90;;;;;;5053942;28;20029;-72
2021/09/02 00:44:35;;;;;;;17.17;11.82;;;10.90;99.90;;;;;;5053164;28;20036;-72
2021/09/02 00:47:03;;;;;;;16.55;12.23;;;10.90;99.90;;;;;;5054244;28;20020;-72
2021/09/02 00:49:28;;;;;;;19.63;13.25;;;10.80;99.90;;;;;;5053243;28;20075;-73
2021/09/02 00:51:55;;;;;;;16.05;12.48;;;10.80;99.90;;;;;;5054821;28;20025;-73
2021/09/02 00:54:21;;;;;;;22.08;14.00;;;10.90;99.90;;;;;;5053757;28;20113;-73
2021/09/02 00:56:46;;;;;;;16.92;12.55;;;10.80;99.90;;;;;;5054386;28;20108;-73
2021/09/02 00:59:12;;;;;;;17.33;12.65;;;10.80;99.90;;;;;;5054568;28;20025;-74
2021/09/02 01:01:38;;;;;;;19.10;11.75;;;10.80;99.90;;;;;;5054253;28;20087;-74
2021/09/02 01:04:04;;;;;;;15.55;12.13;;;10.70;99.90;;;;;;5054143;28;20025;-73
2021/09/02 01:06:30;;;;;;;19.50;14.27;;;10.70;99.90;;;;;;5053602;28;20052;-73
2021/09/02 01:08:56;;;;;;;20.33;13.57;;;10.70;99.90;;;;;;5053843;28;20044;-74
2021/09/02 01:11:23;;;;;;;19.85;13.70;;;10.60;99.90;;;;;;5053143;28;20029;-73
2021/09/02 01:13:48;;;;;;;18.27;13.52;;;10.60;99.90;;;;;;5054064;28;20032;-73
2021/09/02 01:16:14;;;;;;;20.17;13.88;;;10.60;99.90;;;;;;5052754;28;20025;-73
2021/09/02 01:18:40;;;;;;;18.00;13.30;;;10.60;99.90;;;;;;5053786;28;20429;-73
2021/09/02 01:21:05;;;;;;;18.50;14.00;;;10.50;99.90;;;;;;5053910;28;20029;-72
2021/09/02 01:23:38;;;;;;;18.38;13.35;;;10.50;99.90;;;;;;5053850;28;20036;-73
2021/09/02 01:26:20;;;;;;;18.45;13.50;;;10.50;99.90;;;;;;5052972;28;20104;-73
2021/09/02 01:28:47;;;;;;;22.40;13.90;;;10.50;99.90;;;;;;5053722;28;20105;-72
2021/09/02 01:31:19;;;;;;;16.85;13.25;;;10.40;99.90;;;;;;5053423;28;20104;-73
2021/09/02 01:33:46;;;;;;;17.23;12.25;;;10.40;99.90;;;;;;5053659;28;20159;-73
2021/09/02 01:36:12;;;;;;;18.65;13.05;;;10.40;99.90;;;;;;5052908;28;20056;-73
2021/09/02 01:38:38;;;;;;;20.02;14.18;;;10.40;99.90;;;;;;5053423;28;20503;-72
2021/09/02 01:41:04;;;;;;;20.65;12.77;;;10.30;99.90;;;;;;5053533;28;20043;-74
2021/09/02 01:43:29;;;;;;;16.33;11.98;;;10.30;99.90;;;;;;5053308;28;20126;-73
2021/09/02 01:45:55;;;;;;;18.27;12.80;;;10.30;99.90;;;;;;5052251;28;20514;-73
2021/09/02 01:48:21;;;;;;;17.17;11.70;;;10.30;99.90;;;;;;5053224;28;20043;-72
2021/09/02 01:50:46;;;;;;;21.75;12.07;;;10.20;99.90;;;;;;5053281;28;20025;-74
2021/09/02 01:53:14;;;;;;;15.45;11.07;;;10.20;99.90;;;;;;5052015;28;20116;-72
2021/09/02 01:55:42;;;;;;;17.67;12.32;;;10.20;99.90;;;;;;5052388;28;20036;-74
2021/09/02 01:58:08;;;;;;;15.98;11.48;;;10.20;99.90;;;;;;5052873;28;20024;-74
2021/09/02 02:00:35;;;;;;;19.50;12.80;;;10.20;99.90;;;;;;5052902;28;20036;-73
2021/09/02 02:03:01;;;;;;;15.07;11.20;;;10.10;99.90;;;;;;5052975;28;20495;-73
2021/09/02 02:05:26;;;;;;;16.20;11.25;;;10.10;99.90;;;;;;5050804;28;20033;-72
2021/09/02 02:07:52;;;;;;;20.70;12.88;;;10.10;99.90;;;;;;5053127;28;20025;-74
2021/09/02 02:10:26;;;;;;;15.52;12.07;;;10.10;99.90;;;;;;5052597;28;20025;-74
2021/09/02 02:12:53;;;;;;;19.58;11.80;;;10.00;99.90;;;;;;5052792;28;20621;-73
2021/09/02 02:15:19;;;;;;;14.65;11.77;;;10.00;99.90;;;;;;5051697;28;20029;-74
2021/09/02 02:17:44;;;;;;;18.55;12.93;;;9.90;99.90;;;;;;5052881;28;20067;-72
2021/09/02 02:20:11;;;;;;;15.90;12.02;;;9.90;99.90;;;;;;5052699;28;20025;-73
2021/09/02 02:22:38;;;;;;;18.92;13.45;;;9.90;99.90;;;;;;5052548;28;20063;-72
2021/09/02 02:25:08;;;;;;;21.13;14.13;;;9.90;99.90;;;;;;5051843;28;20075;-73
2021/09/02 02:27:35;;;;;;;21.10;14.25;;;9.80;99.90;;;;;;5052726;28;20021;-72
2021/09/02 02:30:01;;;;;;;19.45;13.50;;;9.80;99.90;;;;;;5051636;28;20036;-73
2021/09/02 02:32:26;;;;;;;21.58;12.88;;;9.80;99.90;;;;;;5052640;28;20479;-73
2021/09/02 02:34:52;;;;;;;19.13;12.60;;;9.80;99.90;;;;;;5051671;28;20047;-72
2021/09/02 02:37:18;;;;;;;17.27;12.35;;;9.70;99.90;;;;;;5051121;28;20032;-73
2021/09/02 02:39:43;;;;;;;16.30;11.90;;;9.70;99.90;;;;;;5052245;28;20048;-72
2021/09/02 02:42:10;;;;;;;15.75;11.65;;;9.70;99.90;;;;;;5052421;28;20025;-72
2021/09/02 02:44:37;;;;;;;20.00;12.00;;;9.60;99.90;;;;;;5051291;28;20033;-74
2021/09/02 02:47:04;;;;;;;16.20;10.95;;;9.60;99.90;;;;;;5052360;28;20025;-73
2021/09/02 02:49:30;;;;;;;18.92;12.75;;;9.60;99.90;;;;;;5052306;28;20019;-73
2021/09/02 02:51:55;;;;;;;19.95;13.23;;;9.60;99.90;;;;;;5049843;28;20083;-72
2021/09/02 02:54:21;;;;;;;19.75;13.43;;;9.60;99.90;;;;;;5050412;28;20055;-73
2021/09/02 02:56:47;;;;;;;13.45;11.50;;;9.60;99.90;;;;;;5051797;28;20391;-72
2021/09/02 02:59:13;;;;;;;15.57;11.65;;;9.60;99.90;;;;;;5051668;28;20025;-73
2021/09/02 03:01:39;;;;;;;17.10;11.70;;;9.60;99.90;;;;;;5051731;28;20052;-72
2021/09/02 03:04:04;;;;;;;18.83;12.30;;;9.60;99.90;;;;;;5051803;28;20082;-72
2021/09/02 03:06:30;;;;;;;17.70;12.75;;;9.60;99.90;;;;;;5051223;28;20035;-72
2021/09/02 03:08:56;;;;;;;16.27;12.50;;;9.60;99.90;;;;;;5051752;28;20418;-73
2021/09/02 03:11:22;;;;;;;19.38;13.75;;;9.50;99.90;;;;;;5052440;28;20641;-72
2021/09/02 03:13:48;;;;;;;20.02;13.23;;;9.50;99.90;;;;;;5051765;28;20029;-72
2021/09/02 03:16:14;;;;;;;21.60;14.13;;;9.40;99.90;;;;;;5050766;28;20032;-71
2021/09/02 03:18:40;;;;;;;22.45;14.32;;;9.40;99.90;;;;;;5050918;28;20479;-73
2021/09/02 03:21:06;;;;;;;25.42;14.75;;;9.40;99.90;;;;;;5051429;28;20029;-71
2021/09/02 03:23:31;;;;;;;16.02;12.10;;;9.50;99.90;;;;;;5051270;28;20021;-71
2021/09/02 03:25:57;;;;;;;21.15;15.52;;;9.40;99.90;;;;;;5050973;28;20033;-71
2021/09/02 03:28:23;;;;;;;18.00;13.55;;;9.40;99.90;;;;;;5051452;28;20112;-72
2021/09/02 03:30:48;;;;;;;18.27;13.77;;;9.40;99.90;;;;;;5051391;28;20475;-72
2021/09/02 03:33:14;;;;;;;21.13;14.02;;;9.50;99.90;;;;;;5050807;28;20082;-72
2021/09/02 03:35:40;;;;;;;21.05;13.63;;;9.50;99.90;;;;;;5050691;28;20025;-72
2021/09/02 03:38:06;;;;;;;19.38;14.10;;;9.40;99.90;;;;;;5049656;28;20502;-72
2021/09/02 03:40:32;;;;;;;14.82;11.95;;;9.40;99.90;;;;;;5051376;28;20040;-71
2021/09/02 03:42:58;;;;;;;14.82;11.25;;;9.20;99.90;;;;;;5051333;28;20478;-72
2021/09/02 03:45:24;;;;;;;14.88;11.00;;;9.10;99.90;;;;;;5050130;28;20464;-72
2021/09/02 03:47:50;;;;;;;19.40;12.02;;;9.10;99.90;;;;;;5050255;28;20032;-72
2021/09/02 03:50:17;;;;;;;13.05;10.60;;;9.10;99.90;;;;;;5051222;28;20561;-72
2021/09/02 03:52:43;;;;;;;15.60;12.07;;;9.10;99.90;;;;;;5050048;28;20501;-73
2021/09/02 03:55:09;;;;;;;17.55;13.00;;;9.10;99.90;;;;;;5068041;28;20033;-72
2021/09/02 03:57:35;;;;;;;17.75;14.13;;;9.10;99.90;;;;;;5051921;28;20013;-72
2021/09/02 04:00:03;;;;;;;23.90;16.50;;;9.20;99.90;;;;;;5052360;28;20078;-73
2021/09/02 04:02:28;;;;;;;20.20;15.63;;;9.40;99.90;;;;;;5053426;28;20025;-72
2021/09/02 04:04:54;;;;;;;26.25;14.63;;;9.40;99.90;;;;;;5050856;28;20029;-71
2021/09/02 04:07:19;;;;;;;38.17;16.63;;;9.40;99.90;;;;;;5051114;28;20044;-72
2021/09/02 04:09:45;;;;;;;75.40;15.75;;;9.50;99.90;;;;;;5051312;28;20525;-72
2021/09/02 04:12:11;;;;;;;34.75;16.70;;;9.60;99.90;;;;;;5051510;28;20021;-72
2021/09/02 04:14:36;;;;;;;39.17;13.77;;;9.60;99.90;;;;;;5050724;28;20419;-71
2021/09/02 04:17:02;;;;;;;22.92;12.15;;;9.60;99.90;;;;;;5051113;28;20472;-73
2021/09/02 04:19:28;;;;;;;23.27;12.65;;;9.60;99.90;;;;;;5051812;28;20331;-73
2021/09/02 04:21:53;;;;;;;15.70;12.65;;;9.60;99.90;;;;;;5052296;28;20032;-72
2021/09/02 04:24:20;;;;;;;15.68;10.80;;;9.60;99.90;;;;;;5051497;28;20382;-73
2021/09/02 04:26:45;;;;;;;12.88;9.52;;;9.60;99.90;;;;;;5051972;28;20025;-72
2021/09/02 04:29:11;;;;;;;26.20;9.60;;;9.60;99.90;;;;;;5051540;28;20566;-71
2021/09/02 04:31:37;;;;;;;15.20;9.60;;;9.60;99.90;;;;;;5050980;28;20120;-73
2021/09/02 04:34:02;;;;;;;9.32;8.18;;;9.50;99.90;;;;;;5052347;28;20028;-73
2021/09/02 04:36:28;;;;;;;12.45;9.38;;;9.40;99.90;;;;;;5051664;28;20037;-72
2021/09/02 04:38:54;;;;;;;10.50;9.40;;;9.50;99.90;;;;;;5052195;28;20484;-73
2021/09/02 04:41:19;;;;;;;9.20;8.27;;;9.60;99.90;;;;;;5052212;28;20569;-72
2021/09/02 04:43:45;;;;;;;25.00;8.30;;;9.60;99.90;;;;;;5051805;28;20053;-73
2021/09/02 04:46:14;;;;;;;15.20;8.30;;;9.60;99.90;;;;;;5054879;28;20033;-73
2021/09/02 04:48:40;;;;;;;12.00;7.95;;;9.50;99.90;;;;;;5055961;28;20063;-72
2021/09/02 04:51:05;;;;;;;133.13;10.52;;;9.40;99.90;;;;;;5049211;28;20057;-76
2021/09/02 04:53:31;;;;;;;58.63;9.23;;;9.60;99.90;;;;;;5054672;28;20032;-76
2021/09/02 04:55:57;;;;;;;78.75;11.10;;;9.60;99.90;;;;;;5057734;28;20036;-76
2021/09/02 04:58:22;;;;;;;139.70;12.52;;;9.80;99.90;;;;;;5055800;28;20025;-77
2021/09/02 05:00:48;;;;;;;235.80;16.50;;;10.00;99.90;;;;;;5054099;28;20028;-75
2021/09/02 05:03:13;;;;;;;236.02;17.40;;;10.10;99.90;;;;;;5053601;28;20056;-75
2021/09/02 05:05:39;;;;;;;45.63;13.68;;;10.10;99.90;;;;;;5053152;28;20037;-76
2021/09/02 05:08:05;;;;;;;15.43;13.30;;;10.10;99.90;;;;;;5056357;28;20035;-76
2021/09/02 05:10:33;;;;;;;28.48;13.32;;;10.00;99.90;;;;;;5042687;28;20069;-77
2021/09/02 05:12:59;;;;;;;38.03;11.68;;;10.10;99.90;;;;;;5047573;28;20075;-74
2021/09/02 05:15:25;;;;;;;20.65;10.95;;;10.10;99.90;;;;;;5056972;28;20028;-75
2021/09/02 05:17:50;;;;;;;52.60;12.02;;;10.20;99.90;;;;;;5058696;28;20078;-75
2021/09/02 05:20:19;;;;;;;13.40;11.98;;;10.30;99.90;;;;;;5054090;28;20420;-76
2021/09/02 05:22:45;;;;;;;13.85;11.30;;;10.30;99.90;;;;;;5053969;28;20021;-76
2021/09/02 05:25:12;;;;;;;22.20;10.70;;;10.20;99.90;;;;;;5052486;28;20497;-77
2021/09/02 05:27:38;;;;;;;14.93;9.82;;;10.20;99.90;;;;;;5054454;28;20108;-77
2021/09/02 05:30:06;;;;;;;12.80;9.68;;;10.30;99.90;;;;;;5054745;28;20060;-79
2021/09/02 05:32:32;;;;;;;16.40;9.55;;;10.50;99.90;;;;;;5063252;28;20025;-77
2021/09/02 05:34:58;;;;;;;13.32;9.50;;;10.70;99.90;;;;;;5056611;28;20474;-78
2021/09/02 05:37:23;;;;;;;13.15;8.68;;;10.60;99.90;;;;;;5059010;28;20027;-80
2021/09/02 05:39:49;;;;;;;14.07;8.57;;;10.80;99.90;;;;;;5059442;28;20068;-77
2021/09/02 05:42:15;;;;;;;10.82;8.75;;;10.80;99.90;;;;;;5047122;28;20017;-77
2021/09/02 05:44:40;;;;;;;11.95;8.98;;;10.80;99.90;;;;;;5045808;28;20394;-75
2021/09/02 05:47:06;;;;;;;34.10;8.70;;;10.80;99.90;;;;;;5054919;28;20021;-76
2021/09/02 05:49:32;;;;;;;12.18;9.18;;;10.60;99.90;;;;;;5054984;28;20396;-77
2021/09/02 05:51:58;;;;;;;61.88;9.85;;;10.40;99.90;;;;;;5054628;28;20017;-76
2021/09/02 05:54:24;;;;;;;9.45;8.15;;;10.40;99.90;;;;;;5053719;28;20021;-76
2021/09/02 05:56:49;;;;;;;11.88;8.52;;;10.20;99.90;;;;;;5054651;28;20032;-77
2021/09/02 05:59:16;;;;;;;132.77;10.35;;;9.90;99.90;;;;;;5054338;28;20379;-77
2021/09/02 06:01:43;;;;;;;43.38;8.90;;;9.80;99.90;;;;;;5052988;28;20053;-77
2021/09/02 06:04:09;;;;;;;78.63;10.38;;;9.90;99.90;;;;;;5046685;28;20025;-76
2021/09/02 06:06:35;;;;;;;11.13;8.90;;;9.90;99.90;;;;;;5035881;28;20034;-75
2021/09/02 06:09:01;;;;;;;13.45;10.13;;;10.10;99.90;;;;;;5035323;28;20036;-75
2021/09/02 06:11:26;;;;;;;17.95;10.27;;;10.30;99.90;;;;;;5043684;28;20384;-77
2021/09/02 06:13:52;;;;;;;17.05;10.27;;;10.30;99.90;;;;;;5044671;28;20043;-78
2021/09/02 06:16:18;;;;;;;16.95;10.15;;;10.40;99.90;;;;;;5056522;28;20037;-74
2021/09/02 06:18:43;;;;;;;17.65;9.00;;;10.30;99.90;;;;;;5052553;28;20037;-75
2021/09/02 06:21:09;;;;;;;13.18;8.25;;;10.30;99.90;;;;;;5038191;28;20484;-78
2021/09/02 06:23:35;;;;;;;9.60;8.18;;;10.20;99.90;;;;;;5034281;28;20045;-75
2021/09/02 06:26:01;;;;;;;12.05;7.85;;;10.30;99.90;;;;;;5033486;28;20418;-77
2021/09/02 06:28:26;;;;;;;8.75;7.35;;;10.30;99.90;;;;;;5033714;28;20053;-76
2021/09/02 06:30:52;;;;;;;7.82;7.05;;;10.40;99.90;;;;;;5033731;28;20067;-78
2021/09/02 06:33:18;;;;;;;37.42;7.20;;;10.40;99.90;;;;;;5035234;28;20111;-78
2021/09/02 06:35:44;;;;;;;16.63;6.80;;;10.50;99.90;;;;;;5034381;28;20040;-78
2021/09/02 06:38:09;;;;;;;9.60;5.63;;;10.10;99.90;;;;;;5034795;28;20025;-76
2021/09/02 06:40:35;;;;;;;27.25;6.60;;;9.90;99.90;;;;;;5033829;28;20029;-79
2021/09/02 06:43:01;;;;;;;22.52;6.18;;;10.00;99.90;;;;;;5034678;28;20537;-78
2021/09/02 06:45:27;;;;;;;50.80;7.30;;;10.00;99.90;;;;;;5048325;28;20461;-77
2021/09/02 06:47:52;;;;;;;6.75;6.15;;;10.20;99.90;;;;;;5052744;28;20383;-77
2021/09/02 06:50:18;;;;;;;6.55;5.95;;;10.40;99.90;;;;;;5052999;28;20729;-77
2021/09/02 06:52:44;;;;;;;6.00;5.43;;;10.50;99.90;;;;;;5053870;28;20328;-76
2021/09/02 06:55:11;;;;;;;19.60;5.47;;;10.30;99.90;;;;;;5055673;22;20056;-78
2021/09/02 06:57:37;;;;;;;9.43;5.38;;;10.30;99.90;;;;;;5030150;28;20097;-78
2021/09/02 07:00:05;;;;;;;10.75;6.18;;;10.10;99.90;;;;;;5038648;28;20429;-78
2021/09/02 07:02:31;;;;;;;5.68;4.50;;;10.20;99.90;;;;;;5045386;28;20040;-76
2021/09/02 07:04:56;;;;;;;6.30;5.70;;;10.40;99.90;;;;;;5038782;28;20700;-76
2021/09/02 07:07:22;;;;;;;14.43;6.20;;;10.40;99.90;;;;;;5033224;28;20049;-79
2021/09/02 07:09:48;;;;;;;6.70;6.00;;;10.40;99.90;;;;;;5043276;28;20017;-76
2021/09/02 07:12:13;;;;;;;5.88;5.38;;;10.70;99.90;;;;;;5051232;28;20078;-76
2021/09/02 07:14:39;;;;;;;5.97;5.43;;;10.90;99.90;;;;;;5036685;28;20391;-77
2021/09/02 07:17:05;;;;;;;9.18;5.70;;;10.80;99.90;;;;;;5044629;28;20037;-75
2021/09/02 07:19:31;;;;;;;5.18;4.68;;;11.10;99.90;;;;;;5058580;28;20026;-78
2021/09/02 07:21:58;;;;;;;5.25;4.75;;;11.40;99.90;;;;;;5041971;28;20030;-78
2021/09/02 07:24:23;;;;;;;5.38;4.90;;;11.40;99.90;;;;;;5031175;28;20022;-76
2021/09/02 07:26:49;;;;;;;7.82;5.28;;;11.40;99.90;;;;;;5046939;28;20558;-75
2021/09/02 07:29:15;;;;;;;6.80;5.40;;;11.00;99.90;;;;;;5051407;28;20025;-75
2021/09/02 07:31:41;;;;;;;5.18;4.78;;;11.20;99.90;;;;;;5051740;28;20402;-76
2021/09/02 07:34:06;;;;;;;5.70;5.10;;;11.30;99.90;;;;;;5051039;28;20025;-79
2021/09/02 07:36:33;;;;;;;5.35;4.85;;;11.70;99.90;;;;;;5050477;28;20067;-77
2021/09/02 07:38:59;;;;;;;5.20;4.80;;;12.30;99.90;;;;;;5051185;28;20032;-77
2021/09/02 07:41:25;;;;;;;5.82;5.00;;;12.40;99.90;;;;;;5051051;28;20098;-77
2021/09/02 07:43:50;;;;;;;6.07;5.47;;;12.30;99.90;;;;;;5051012;28;20487;-77
2021/09/02 07:46:16;;;;;;;6.90;5.95;;;12.40;99.90;;;;;;5050592;28;20036;-78
2021/09/02 07:48:45;;;;;;;5.45;4.93;;;12.50;99.90;;;;;;5051325;28;20044;-77
2021/09/02 07:51:12;;;;;;;5.28;4.88;;;12.60;99.90;;;;;;5051305;28;20025;-78
2021/09/02 07:53:37;;;;;;;5.30;4.72;;;12.70;99.90;;;;;;5050991;28;20486;-77
2021/09/02 07:56:03;;;;;;;5.13;4.68;;;12.50;99.90;;;;;;5050396;28;20029;-78
2021/09/02 07:58:29;;;;;;;5.13;4.43;;;12.70;99.90;;;;;;5051158;28;20032;-78
2021/09/02 08:00:55;;;;;;;5.88;4.05;;;13.10;99.90;;;;;;5053013;28;20466;-80
2021/09/02 08:03:21;;;;;;;4.45;4.13;;;13.50;99.90;;;;;;5052292;28;20013;-78
2021/09/02 08:05:46;;;;;;;7.05;3.78;;;13.90;99.90;;;;;;5050439;28;20025;-78
2021/09/02 08:08:16;;;;;;;5.90;4.30;;;13.80;99.90;;;;;;5051969;28;20021;-77
2021/09/02 08:10:43;;;;;;;13.18;4.82;;;14.00;99.90;;;;;;5047777;28;20024;-77
2021/09/02 08:13:10;;;;;;;7.65;4.05;;;14.20;99.90;;;;;;5055676;28;20021;-77
2021/09/02 08:15:36;;;;;;;12.93;4.35;;;14.70;99.90;;;;;;5049892;28;20029;-77
2021/09/02 08:18:03;;;;;;;10.73;4.45;;;15.10;99.90;;;;;;5054773;28;20032;-78
2021/09/02 08:20:29;;;;;;;16.80;4.80;;;15.50;99.90;;;;;;5064127;28;20083;-78
2021/09/02 08:22:55;;;;;;;5.80;3.60;;;15.70;99.90;;;;;;5065593;28;20021;-79
2021/09/02 08:25:21;;;;;;;6.28;4.20;;;16.20;99.90;;;;;;5058546;28;20025;-77
2021/09/02 08:27:46;;;;;;;4.88;3.83;;;16.90;99.90;;;;;;5054565;28;20025;-79
2021/09/02 08:30:18;;;;;;;7.85;4.40;;;17.10;99.90;;;;;;5054068;28;20112;-78
2021/09/02 08:32:48;;;;;;;6.32;4.35;;;17.90;99.90;;;;;;5055304;28;20025;-77
2021/09/02 08:35:22;;;;;;;11.38;4.75;;;18.60;99.90;;;;;;5054601;28;20143;-77
2021/09/02 08:37:54;;;;;;;8.88;4.50;;;19.30;99.90;;;;;;5054962;28;20479;-78
2021/09/02 08:40:22;;;;;;;8.77;4.28;;;19.80;99.90;;;;;;5054882;28;20632;-77
2021/09/02 08:42:48;;;;;;;7.32;4.05;;;20.20;99.90;;;;;;5055150;28;20041;-78
2021/09/02 08:45:14;;;;;;;8.43;4.38;;;19.50;99.90;;;;;;5054245;28;20040;-78
2021/09/02 08:47:44;;;;;;;4.75;3.85;;;20.10;99.90;;;;;;5055281;28;20760;-78
2021/09/02 08:50:10;;;;;;;3.97;3.60;;;20.30;99.90;;;;;;5054289;28;20394;-78
2021/09/02 08:52:36;;;;;;;7.47;4.63;;;20.40;99.90;;;;;;5054957;28;20430;-78
2021/09/02 08:55:04;;;;;;;5.68;4.18;;;19.80;99.90;;;;;;5052601;28;20033;-77
2021/09/02 08:57:30;;;;;;;4.97;3.67;;;20.10;99.90;;;;;;5055116;28;20013;-78
2021/09/02 08:59:56;;;;;;;4.18;3.80;;;20.50;99.90;;;;;;5053923;28;20029;-77
2021/09/02 09:02:31;;;;;;;4.20;3.80;;;21.10;99.90;;;;;;5054695;28;20025;-78
2021/09/02 09:05:02;;;;;;;4.00;3.50;;;21.10;99.90;;;;;;5053992;28;20100;-75
2021/09/02 09:07:32;;;;;;;8.98;4.63;;;19.90;99.90;;;;;;5054125;28;20382;-75
2021/09/02 09:09:59;;;;;;;4.65;3.90;;;20.20;99.90;;;;;;5054258;28;20025;-75
2021/09/02 09:12:35;;;;;;;6.60;4.20;;;20.40;99.90;;;;;;5057770;28;20052;-80
2021/09/02 09:15:01;;;;;;;6.28;4.00;;;21.10;99.90;;;;;;5055705;28;20054;-78
2021/09/02 09:17:26;;;;;;;5.28;3.90;;;21.40;99.90;;;;;;5054316;28;20024;-76
2021/09/02 09:19:53;;;;;;;8.18;4.68;;;21.80;99.90;;;;;;5054025;28;20028;-76
2021/09/02 09:22:21;;;;;;;4.85;4.45;;;21.80;99.90;;;;;;5054162;28;20025;-76
2021/09/02 09:24:59;;;;;;;5.97;3.90;;;23.00;99.90;;;;;;5053626;28;20047;-76
2021/09/02 09:27:39;;;;;;;6.00;4.30;;;23.50;99.90;;;;;;5054058;28;20102;-76
2021/09/02 09:30:16;;;;;;;6.38;4.10;;;23.30;99.90;;;;;;5052302;28;20029;-75
2021/09/02 09:33:11;;;;;;;5.55;4.50;;;23.40;99.90;;;;;;5053265;28;20483;-76
2021/09/02 09:35:42;;;;;;;6.43;4.82;;;23.50;99.90;;;;;;5040029;28;20044;-76
2021/09/02 09:38:10;;;;;;;4.55;4.15;;;23.20;99.90;;;;;;5052984;28;20074;-76
2021/09/02 09:40:43;;;;;;;5.90;5.22;;;24.50;99.90;;;;;;5053332;28;20022;-76
2021/09/02 09:43:11;;;;;;;5.80;4.70;;;24.10;99.90;;;;;;5053728;28;20017;-77
2021/09/02 09:45:41;;;;;;;7.85;4.88;;;23.80;99.90;;;;;;5052858;28;20043;-76
2021/09/02 09:48:31;;;;;;;5.03;4.45;;;24.50;99.90;;;;;;5058595;28;20021;-79
2021/09/02 09:51:18;;;;;;;4.93;4.53;;;24.40;99.90;;;;;;5054305;28;20078;-75
2021/09/02 09:53:53;;;;;;;5.85;4.55;;;25.10;99.30;;;;;;5053555;28;20059;-78
2021/09/02 09:56:24;;;;;;;8.77;4.82;;;25.30;97.90;;;;;;5051494;28;20025;-77
2021/09/02 09:58:52;;;;;;;4.90;4.40;;;24.50;99.90;;;;;;5053384;28;20025;-77
2021/09/02 10:01:18;;;;;;;5.75;5.00;;;24.50;99.90;;;;;;5051878;28;20036;-76
2021/09/02 10:03:45;;;;;;;5.22;4.82;;;24.50;99.90;;;;;;5052772;28;20032;-76
2021/09/02 10:06:12;;;;;;;5.07;4.63;;;24.40;99.90;;;;;;5052689;28;20027;-77
2021/09/02 10:08:41;;;;;;;5.97;4.45;;;24.90;99.70;;;;;;5053164;28;20021;-76
2021/09/02 10:11:09;;;;;;;4.18;3.88;;;25.10;99.30;;;;;;5054893;28;20052;-80
2021/09/02 10:13:35;;;;;;;5.60;4.43;;;25.80;98.20;;;;;;5055462;28;20021;-80
2021/09/02 10:16:02;;;;;;;5.13;3.92;;;26.00;96.90;;;;;;5059400;28;20035;-79
2021/09/02 10:18:29;;;;;;;6.03;4.30;;;25.90;98.10;;;;;;5061649;28;20071;-79
2021/09/02 10:20:59;;;;;;;4.43;3.88;;;26.50;97.90;;;;;;5060424;28;20028;-78
2021/09/02 10:23:25;;;;;;;4.25;3.95;;;26.50;97.60;;;;;;5047232;28;20446;-78
2021/09/02 10:25:52;;;;;;;4.63;4.22;;;27.20;95.70;;;;;;5039448;28;20021;-79
2021/09/02 10:28:26;;;;;;;6.05;3.97;;;27.90;94.80;;;;;;5041856;28;20515;-78
2021/09/02 10:31:03;;;;;;;4.50;4.10;;;28.00;92.80;;;;;;5042817;28;20049;-78
2021/09/02 10:33:42;;;;;;;4.25;3.35;;;27.80;94.80;;;;;;5040381;28;20036;-79
2021/09/02 10:36:10;;;;;;;4.25;3.85;;;28.30;93.30;;;;;;5040056;28;20021;-78
2021/09/02 10:38:57;;;;;;;4.28;3.60;;;28.00;92.60;;;;;;5040670;28;20048;-78
2021/09/02 10:41:35;;;;;;;4.30;3.40;;;27.90;91.10;;;;;;5038691;28;20045;-78
2021/09/02 10:44:03;;;;;;;4.03;3.58;;;27.90;93.30;;;;;;5048141;28;20035;-78
2021/09/02 10:46:38;;;;;;;3.75;3.45;;;27.40;91.50;;;;;;5052447;28;20040;-77
2021/09/02 10:49:14;;;;;;;4.50;3.78;;;27.70;92.80;;;;;;5041163;28;20026;-78
2021/09/02 10:51:41;;;;;;;4.20;3.80;;;28.30;92.60;;;;;;5044738;28;20093;-78
2021/09/02 10:54:09;;;;;;;5.90;3.67;;;28.10;91.80;;;;;;5055550;28;20033;-79
2021/09/02 10:56:53;;;;;;;3.88;3.58;;;28.20;92.40;;;;;;5060218;28;20025;-79
2021/09/02 10:59:50;;;;;;;3.90;3.60;;;28.80;91.30;;;;;;5066269;28;20025;-79
2021/09/02 11:02:16;;;;;;;4.43;3.65;;;29.80;90.40;;;;;;5063435;28;20025;-77
2021/09/02 11:04:43;;;;;;;6.30;4.05;;;29.50;88.20;;;;;;5039531;28;20037;-76
2021/09/02 11:07:09;;;;;;;3.90;3.60;;;28.40;89.20;;;;;;5040924;28;20032;-77
2021/09/02 11:09:42;;;;;;;5.70;3.67;;;28.20;90.00;;;;;;5039231;28;20034;-70
2021/09/02 11:12:12;;;;;;;7.80;3.92;;;28.40;90.50;;;;;;5032327;28;20025;-69
2021/09/02 11:14:42;;;;;;;6.20;3.70;;;29.00;89.20;;;;;;5031733;28;20061;-69
2021/09/02 11:17:08;;;;;;;4.10;3.63;;;29.10;85.70;;;;;;5032174;28;20034;-70
2021/09/02 11:19:36;;;;;;;6.10;3.40;;;28.80;88.00;;;;;;5032033;28;20380;-70
2021/09/02 11:22:28;;;;;;;3.63;3.33;;;29.10;85.00;;;;;;5031558;28;20052;-69
2021/09/02 11:24:56;;;;;;;4.13;3.35;;;28.40;83.40;;;;;;5029140;28;20042;-68
2021/09/02 11:27:30;;;;;;;3.55;3.28;;;28.20;86.70;;;;;;5031505;28;20052;-71
2021/09/02 11:30:25;;;;;;;3.75;3.45;;;28.70;86.10;;;;;;5035919;28;20025;-69
2021/09/02 11:32:59;;;;;;;4.07;3.25;;;29.50;83.30;;;;;;5042261;28;20022;-70
2021/09/02 11:35:25;;;;;;;4.07;3.75;;;28.70;84.00;;;;;;5038841;28;20545;-70
2021/09/02 11:37:51;;;;;;;4.07;3.67;;;28.20;84.10;;;;;;5041517;28;20028;-69
2021/09/02 11:40:37;;;;;;;3.70;3.40;;;28.40;85.50;;;;;;5040316;28;20498;-71
2021/09/02 11:43:04;;;;;;;6.93;4.00;;;28.50;80.30;;;;;;5041188;28;20028;-71
2021/09/02 11:45:35;;;;;;;5.65;3.67;;;28.40;80.60;;;;;;5037347;28;20036;-70
2021/09/02 11:48:05;;;;;;;4.20;3.80;;;28.80;81.30;;;;;;5040013;28;20021;-72
2021/09/02 11:50:31;;;;;;;3.50;3.30;;;28.80;81.50;;;;;;5041249;28;20490;-68
2021/09/02 11:52:56;;;;;;;4.13;3.22;;;28.90;82.30;;;;;;5038724;28;20018;-69
2021/09/02 11:55:30;;;;;;;5.57;3.47;;;29.30;81.70;;;;;;5044516;28;20475;-69
2021/09/02 11:58:01;;;;;;;3.55;3.35;;;28.80;81.00;;;;;;5046686;28;20017;-71
2021/09/02 12:00:28;;;;;;;3.30;3.10;;;28.60;82.00;;;;;;5048335;28;20025;-68
2021/09/02 12:02:56;;;;;;;6.28;3.75;;;29.00;80.40;;;;;;5046388;28;20537;-70
2021/09/02 12:05:25;;;;;;;3.70;3.40;;;29.50;77.60;;;;;;5045699;28;20060;-69
2021/09/02 12:07:53;;;;;;;8.20;3.47;;;29.00;79.60;;;;;;5046130;28;20045;-68
2021/09/02 12:10:20;;;;;;;3.60;3.30;;;29.30;80.70;;;;;;5046114;28;20048;-69
2021/09/02 12:12:46;;;;;;;6.75;3.17;;;29.50;77.70;;;;;;5047778;28;20100;-68
2021/09/02 12:15:28;;;;;;;7.25;3.30;;;29.50;75.30;;;;;;5045202;28;20025;-69
2021/09/02 12:18:12;;;;;;;6.95;3.85;;;29.20;79.20;;;;;;5047368;28;20041;-69
2021/09/02 12:20:40;;;;;;;3.85;3.03;;;29.10;78.60;;;;;;5035763;28;20022;-69
2021/09/02 12:23:26;;;;;;;5.00;3.40;;;29.10;76.50;;;;;;5037086;28;20026;-70
2021/09/02 12:26:04;;;;;;;5.57;3.05;;;29.10;76.60;;;;;;5035340;28;20037;-71
2021/09/02 12:28:39;;;;;;;6.18;3.67;;;28.80;75.20;;;;;;5037629;28;20029;-68
2021/09/02 12:31:20;;;;;;;3.88;3.38;;;28.50;76.40;;;;;;5037928;28;20498;-68
2021/09/02 12:33:55;;;;;;;4.95;3.72;;;28.30;78.10;;;;;;5038000;28;20060;-69
2021/09/02 12:36:21;;;;;;;5.38;3.50;;;28.70;79.70;;;;;;5037205;28;20029;-69
2021/09/02 12:38:47;;;;;;;4.90;3.58;;;28.90;75.90;;;;;;5038035;28;20029;-69
2021/09/02 12:41:23;;;;;;;3.80;3.30;;;28.90;78.30;;;;;;5037326;28;20017;-69
2021/09/02 12:44:07;;;;;;;6.25;3.25;;;29.20;76.90;;;;;;5037798;28;20041;-68